Time;durP1;ratioP1;P1;durP2;ratioP2;P2;SDS_P1;SDS_P2;PMS_P1;PMS_P2;Temp;Humidity;BMP_temperature;BMP_pressure;BME280_temperature;BME280_humidity;BME280_pressure;Samples;Min_cycle;Max_cycle;Signal;HPM_P1;HPM_P2
2023/05/15 00:01:37;;;;;;;6.80;6.30;;;;;;;9.67;100.00;95862.53;7395657;19;20394;-74
2023/05/15 00:04:04;;;;;;;6.20;5.70;;;;;;;9.58;100.00;95859.22;7397078;19;20396;-74
2023/05/15 00:06:31;;;;;;;7.10;6.40;;;;;;;9.53;100.00;95851.53;7398401;19;20402;-76
2023/05/15 00:08:58;;;;;;;6.87;6.07;;;;;;;9.52;100.00;95857.16;7400783;19;20421;-76
2023/05/15 00:11:26;;;;;;;6.80;6.17;;;;;;;9.33;100.00;95818.09;7393557;19;20400;-75
2023/05/15 00:13:53;;;;;;;7.00;6.40;;;;;;;9.53;100.00;95854.19;7397738;19;20388;-76
2023/05/15 00:16:20;;;;;;;7.07;6.47;;;;;;;9.49;100.00;95848.03;7395262;19;20377;-75
2023/05/15 00:18:50;;;;;;;7.90;7.20;;;;;;;9.47;100.00;95843.06;7396917;19;20372;-74
2023/05/15 00:21:17;;;;;;;8.47;7.37;;;;;;;9.53;100.00;95838.34;7393255;19;20404;-75
2023/05/15 00:23:46;;;;;;;6.70;6.00;;;;;;;9.50;100.00;95843.53;7394991;19;20357;-75
2023/05/15 00:26:14;;;;;;;7.27;6.67;;;;;;;8.95;100.00;95774.38;7395417;19;21012;-76
2023/05/15 00:28:41;;;;;;;8.00;7.00;;;;;;;9.32;100.00;95822.63;7396304;19;20393;-76
2023/05/15 00:31:08;;;;;;;7.13;6.60;;;;;;;9.22;100.00;95809.88;7393965;19;20457;-76
2023/05/15 00:33:35;;;;;;;7.43;6.73;;;;;;;9.35;100.00;95821.97;7393197;19;20728;-75
2023/05/15 00:36:02;;;;;;;8.13;6.90;;;;;;;9.35;100.00;95814.06;7395610;19;20380;-75
2023/05/15 00:38:29;;;;;;;5.90;5.40;;;;;;;9.22;100.00;95801.97;7393112;19;20396;-75
2023/05/15 00:40:57;;;;;;;6.93;6.33;;;;;;;9.23;100.00;95800.88;7398877;19;20433;-75
2023/05/15 00:43:25;;;;;;;7.10;6.50;;;;;;;9.17;100.00;95796.91;7401160;19;20393;-75
2023/05/15 00:45:52;;;;;;;6.90;6.30;;;;;;;9.25;100.00;95797.91;7402675;19;20376;-75
2023/05/15 00:48:21;;;;;;;7.17;6.47;;;;;;;9.40;100.00;95818.34;7401515;19;20404;-75
2023/05/15 00:50:50;;;;;;;6.77;6.17;;;;;;;9.51;100.00;95819.44;7402102;19;20435;-75
2023/05/15 00:53:17;;;;;;;7.37;6.83;;;;;;;9.19;100.00;95799.97;7400976;19;20418;-75
2023/05/15 00:55:45;;;;;;;8.10;7.40;;;;;;;9.32;100.00;95814.69;7399541;19;20425;-75
2023/05/15 00:58:14;;;;;;;7.10;6.50;;;;;;;9.20;100.00;95798.88;7400763;19;20368;-75
2023/05/15 01:00:45;;;;;;;7.33;6.63;;;;;;;9.24;100.00;95805.03;7400480;19;20988;-74
2023/05/15 01:03:12;;;;;;;6.47;5.73;;;;;;;9.23;100.00;95803.50;7401193;19;20429;-74
2023/05/15 01:05:39;;;;;;;7.00;6.50;;;;;;;8.98;100.00;95760.53;7402577;19;20721;-74
2023/05/15 01:08:20;;;;;;;7.03;6.43;;;;;;;9.45;100.00;95820.75;7401407;19;20447;-74
2023/05/15 01:10:50;;;;;;;7.13;6.53;;;;;;;9.60;100.00;95827.22;7397733;19;20428;-74
2023/05/15 01:13:22;;;;;;;6.20;5.70;;;;;;;9.53;100.00;95806.69;7402889;19;20369;-74
2023/05/15 01:15:49;;;;;;;6.70;6.20;;;;;;;9.48;100.00;95796.31;7397653;19;20385;-74
2023/05/15 01:18:16;;;;;;;5.80;5.30;;;;;;;9.44;100.00;95784.91;7402850;19;20427;-74
2023/05/15 01:20:55;;;;;;;6.20;5.70;;;;;;;9.67;100.00;95812.38;7397733;19;21000;-74
2023/05/15 01:24:03;;;;;;;6.03;5.27;;;;;;;9.65;100.00;95797.97;7401878;19;20404;-74
2023/05/15 01:26:51;;;;;;;8.03;6.57;;;;;;;9.78;100.00;95821.38;7401532;19;20375;-74
2023/05/15 01:29:40;;;;;;;5.63;5.13;;;;;;;9.68;100.00;95813.13;7400068;19;20407;-74
2023/05/15 01:32:36;;;;;;;6.83;5.93;;;;;;;9.51;100.00;95808.13;7401176;19;20423;-74
2023/05/15 01:35:20;;;;;;;7.70;7.10;;;;;;;9.52;100.00;95796.44;7396744;19;20396;-74
2023/05/15 01:37:53;;;;;;;7.63;6.93;;;;;;;9.57;100.00;95804.91;7400026;19;20938;-74
2023/05/15 01:40:25;;;;;;;7.67;6.63;;;;;;;9.61;100.00;95802.34;7398126;19;20834;-74
2023/05/15 01:43:00;;;;;;;6.97;6.17;;;;;;;9.69;100.00;95801.47;7401202;19;20353;-74
2023/05/15 01:45:28;;;;;;;7.07;6.13;;;;;;;9.68;100.00;95798.06;7400264;19;20408;-74
2023/05/15 01:47:58;;;;;;;6.93;6.27;;;;;;;9.66;100.00;95802.16;7401196;19;20797;-74
2023/05/15 01:50:27;;;;;;;5.67;5.27;;;;;;;9.66;100.00;95804.78;7397970;19;20436;-74
2023/05/15 01:52:57;;;;;;;6.60;6.00;;;;;;;9.56;100.00;95806.00;7398558;19;20379;-74
2023/05/15 01:55:26;;;;;;;8.47;6.83;;;;;;;9.40;100.00;95791.94;7398051;19;20904;-74
2023/05/15 01:57:55;;;;;;;6.60;6.00;;;;;;;9.50;100.00;95804.72;7398455;19;20410;-74
2023/05/15 02:00:22;;;;;;;7.93;7.33;;;;;;;9.47;100.00;95787.66;7398626;19;20455;-75
2023/05/15 02:02:51;;;;;;;7.20;6.50;;;;;;;9.46;100.00;95778.19;7398055;19;20753;-75
2023/05/15 02:05:19;;;;;;;9.53;6.67;;;;;;;9.48;100.00;95791.06;7399793;19;20725;-75
2023/05/15 02:07:48;;;;;;;7.00;6.47;;;;;;;9.39;100.00;95772.72;7398743;19;20764;-75
2023/05/15 02:10:17;;;;;;;7.93;7.23;;;;;;;9.40;100.00;95784.03;7398566;19;20450;-75
2023/05/15 02:12:48;;;;;;;7.50;6.90;;;;;;;9.37;100.00;95771.53;7398600;19;20380;-75
2023/05/15 02:15:17;;;;;;;8.83;7.13;;;;;;;9.34;100.00;95780.06;7399040;19;20372;-75
2023/05/15 02:17:45;;;;;;;7.57;6.93;;;;;;;8.72;100.00;95694.19;7398867;19;20373;-75
2023/05/15 02:20:13;;;;;;;7.13;6.40;;;;;;;9.19;100.00;95781.50;7399126;19;20436;-74
2023/05/15 02:22:40;;;;;;;7.63;7.03;;;;;;;9.19;100.00;95774.38;7398892;19;20887;-74
2023/05/15 02:25:07;;;;;;;9.00;8.10;;;;;;;9.25;100.00;95772.28;7399804;19;20389;-74
2023/05/15 02:27:52;;;;;;;7.73;6.97;;;;;;;9.23;100.00;95763.94;7398379;19;20402;-74
2023/05/15 02:30:33;;;;;;;7.10;6.40;;;;;;;9.29;100.00;95769.75;7396399;19;20436;-74
2023/05/15 02:33:22;;;;;;;6.93;6.33;;;;;;;9.28;100.00;95760.31;7399026;19;20791;-74
2023/05/15 02:36:01;;;;;;;6.30;5.70;;;;;;;9.12;100.00;95733.84;7396647;19;20384;-74
2023/05/15 02:38:50;;;;;;;5.57;5.00;;;;;;;9.48;100.00;95767.31;7396916;19;20423;-74
2023/05/15 02:41:18;;;;;;;5.47;4.97;;;;;;;9.30;100.00;95742.28;7397516;19;20491;-74
2023/05/15 02:43:49;;;;;;;6.20;5.73;;;;;;;9.73;100.00;95774.06;7397938;19;20420;-74
2023/05/15 02:46:18;;;;;;;5.97;5.47;;;;;;;9.69;100.00;95751.31;7399030;19;20985;-74
2023/05/15 02:48:47;;;;;;;6.70;6.10;;;;;;;9.85;100.00;95773.28;7397542;19;20937;-74
2023/05/15 02:51:14;;;;;;;6.87;6.27;;;;;;;9.67;100.00;95764.88;7398891;19;20480;-76
2023/05/15 02:53:41;;;;;;;6.50;6.00;;;;;;;9.59;100.00;95767.63;7398375;19;20392;-74
2023/05/15 02:56:08;;;;;;;6.13;4.80;;;;;;;9.50;100.00;95744.00;7398969;19;20359;-74
2023/05/15 02:58:36;;;;;;;5.90;5.40;;;;;;;9.47;100.00;95744.66;7397717;19;20458;-75
2023/05/15 03:01:03;;;;;;;6.53;5.90;;;;;;;9.24;100.00;95728.56;7397671;19;20449;-75
2023/05/15 03:03:30;;;;;;;5.43;4.97;;;;;;;9.24;100.00;95728.56;7392525;19;20775;-74
2023/05/15 03:05:59;;;;;;;6.57;5.97;;;;;;;9.32;100.00;95730.28;7396088;19;20385;-74
2023/05/15 03:08:27;;;;;;;9.70;5.37;;;;;;;9.67;100.00;95762.22;7397654;19;20389;-75
2023/05/15 03:10:54;;;;;;;9.00;5.73;;;;;;;9.53;100.00;95738.06;7394383;19;20969;-75
2023/05/15 03:13:21;;;;;;;9.43;6.07;;;;;;;9.52;100.00;95725.97;7397626;19;20369;-74
2023/05/15 03:15:48;;;;;;;6.60;6.00;;;;;;;9.52;100.00;95748.97;7396981;19;20367;-74
2023/05/15 03:18:17;;;;;;;6.53;5.80;;;;;;;9.30;100.00;95737.75;7397243;19;20400;-74
2023/05/15 03:20:46;;;;;;;6.90;5.70;;;;;;;9.27;100.00;95738.44;7394867;19;20442;-74
2023/05/15 03:23:13;;;;;;;8.00;6.00;;;;;;;9.30;100.00;95743.03;7397384;19;20369;-74
2023/05/15 03:25:40;;;;;;;6.33;5.83;;;;;;;9.27;100.00;95746.34;7395853;19;20929;-74
2023/05/15 03:28:07;;;;;;;5.63;5.10;;;;;;;9.19;100.00;95711.06;7397251;19;20392;-74
2023/05/15 03:30:34;;;;;;;5.77;5.20;;;;;;;8.97;100.00;95679.91;7396142;19;20404;-74
2023/05/15 03:33:02;;;;;;;6.60;6.00;;;;;;;9.39;100.00;95727.09;7397479;19;20365;-74
2023/05/15 03:35:31;;;;;;;6.33;5.70;;;;;;;9.44;100.00;95732.13;7395263;19;20389;-74
2023/05/15 03:37:58;;;;;;;6.73;6.13;;;;;;;9.37;100.00;95726.66;7398596;19;20372;-74
2023/05/15 03:40:25;;;;;;;6.27;5.70;;;;;;;9.34;100.00;95738.63;7395816;19;20468;-74
2023/05/15 03:42:52;;;;;;;6.87;6.27;;;;;;;9.33;100.00;95734.47;7425279;19;20415;-74
2023/05/15 03:45:19;;;;;;;6.47;5.83;;;;;;;9.29;100.00;95735.47;7432045;19;20361;-74
2023/05/15 03:47:47;;;;;;;6.57;6.00;;;;;;;9.20;100.00;95732.94;7432966;19;20394;-74
2023/05/15 03:50:15;;;;;;;7.13;6.53;;;;;;;8.96;100.00;95717.16;7406542;19;20436;-74
2023/05/15 03:52:42;;;;;;;6.20;5.73;;;;;;;8.90;100.00;95708.69;7397595;19;20372;-74
2023/05/15 03:55:09;;;;;;;11.30;7.37;;;;;;;8.95;100.00;95703.19;7395263;19;20376;-74
2023/05/15 03:57:36;;;;;;;7.33;6.73;;;;;;;8.88;100.00;95689.78;7397711;19;20404;-74
2023/05/15 04:00:08;;;;;;;7.33;6.63;;;;;;;9.06;100.00;95729.88;7395271;19;20785;-74
2023/05/15 04:02:39;;;;;;;7.80;7.00;;;;;;;8.83;100.00;95709.25;7398792;19;20352;-74
2023/05/15 04:05:07;;;;;;;7.17;6.57;;;;;;;8.91;100.00;95720.75;7396098;19;20884;-74
2023/05/15 04:07:35;;;;;;;7.50;6.90;;;;;;;8.95;100.00;95719.03;7394360;19;20359;-74
2023/05/15 04:10:02;;;;;;;8.00;7.20;;;;;;;8.76;100.00;95693.19;7395151;19;20416;-74
2023/05/15 04:12:32;;;;;;;7.53;6.83;;;;;;;8.97;100.00;95722.09;7396522;19;20756;-74
2023/05/15 04:15:19;;;;;;;8.27;7.47;;;;;;;8.71;100.00;95690.78;7396835;19;20370;-74
2023/05/15 04:17:48;;;;;;;8.17;6.40;;;;;;;8.88;100.00;95722.19;7395187;19;20460;-74
2023/05/15 04:20:19;;;;;;;7.57;6.77;;;;;;;8.90;100.00;95716.59;7395132;19;20429;-74
2023/05/15 04:22:47;;;;;;;8.53;7.67;;;;;;;8.86;100.00;95727.03;7394999;19;20377;-74
2023/05/15 04:25:14;;;;;;;7.03;6.33;;;;;;;8.86;100.00;95726.25;7397922;19;20398;-74
2023/05/15 04:27:42;;;;;;;7.77;7.10;;;;;;;8.85;100.00;95706.28;7396767;19;20759;-74
2023/05/15 04:30:10;;;;;;;7.00;6.40;;;;;;;8.88;100.00;95719.56;7394358;19;20401;-74
2023/05/15 04:32:38;;;;;;;7.43;6.80;;;;;;;8.74;100.00;95705.16;7396349;19;20345;-74
2023/05/15 04:35:10;;;;;;;118.03;70.97;;;;;;;8.94;100.00;95721.97;7394319;19;20348;-74
2023/05/15 04:37:39;;;;;;;42.07;28.30;;;;;;;9.00;100.00;95721.44;7394763;19;20433;-74
2023/05/15 04:40:06;;;;;;;17.07;10.30;;;;;;;8.94;100.00;95714.06;7392800;19;20417;-74
2023/05/15 04:42:35;;;;;;;8.50;7.70;;;;;;;8.65;100.00;95662.34;7395261;19;20377;-74
2023/05/15 04:45:05;;;;;;;8.07;7.37;;;;;;;9.05;100.00;95723.06;7393863;19;20435;-74
2023/05/15 04:47:32;;;;;;;7.80;7.00;;;;;;;9.14;100.00;95727.13;7395247;19;20380;-74
2023/05/15 04:50:00;;;;;;;9.23;8.17;;;;;;;8.66;100.00;95666.50;7392607;19;20412;-74
2023/05/15 04:52:26;;;;;;;8.97;8.20;;;;;;;8.95;100.00;95707.69;7394747;19;20920;-74
2023/05/15 04:54:54;;;;;;;8.73;7.93;;;;;;;8.97;100.00;95692.31;7394658;19;20345;-74
2023/05/15 04:57:22;;;;;;;10.00;9.00;;;;;;;9.23;100.00;95728.88;7394815;19;20678;-74
2023/05/15 04:59:49;;;;;;;7.50;6.80;;;;;;;9.14;100.00;95718.44;7392554;19;20429;-74
2023/05/15 05:02:20;;;;;;;10.10;9.07;;;;;;;9.41;100.00;95730.94;7395941;19;20352;-74
2023/05/15 05:04:47;;;;;;;8.30;7.50;;;;;;;9.32;100.00;95737.44;7393554;19;20365;-73
2023/05/15 05:07:14;;;;;;;7.70;7.00;;;;;;;9.28;100.00;95715.47;7397291;19;20369;-73
2023/05/15 05:09:41;;;;;;;10.83;8.60;;;;;;;9.38;100.00;95718.41;7393211;19;21003;-73
2023/05/15 05:12:09;;;;;;;9.13;8.23;;;;;;;9.61;100.00;95739.03;7394977;19;20492;-75
2023/05/15 05:14:36;;;;;;;9.00;7.80;;;;;;;9.67;100.00;95703.38;7392767;19;20393;-75
2023/05/15 05:17:03;;;;;;;9.70;8.80;;;;;;;9.99;100.00;95720.84;7394234;19;20381;-75
2023/05/15 05:19:30;;;;;;;7.33;6.73;;;;;;;10.13;100.00;95717.81;7392870;19;20404;-75
2023/05/15 05:22:00;;;;;;;8.37;7.57;;;;;;;10.44;100.00;95740.16;7395341;19;20372;-76
2023/05/15 05:24:27;;;;;;;9.40;8.50;;;;;;;10.18;100.00;95672.69;7394968;19;20344;-76
2023/05/15 05:26:56;;;;;;;8.57;7.77;;;;;;;10.43;100.00;95709.56;7397900;19;20937;-73
2023/05/15 05:29:24;;;;;;;8.47;7.63;;;;;;;10.46;100.00;95708.88;7402019;19;20700;-73
2023/05/15 05:31:51;;;;;;;9.03;8.13;;;;;;;10.48;100.00;95723.28;7400740;19;20341;-73
2023/05/15 05:34:19;;;;;;;7.83;7.10;;;;;;;10.66;100.00;95724.47;7401085;19;20372;-73
2023/05/15 05:36:46;;;;;;;8.73;7.97;;;;;;;11.17;100.00;95735.13;7397479;19;20384;-73
2023/05/15 05:39:15;;;;;;;8.13;7.43;;;;;;;10.78;100.00;95714.94;7400519;19;20376;-74
2023/05/15 05:41:42;;;;;;;7.10;6.50;;;;;;;10.67;100.00;95725.25;7400834;19;20337;-74
2023/05/15 05:44:09;;;;;;;7.60;6.90;;;;;;;10.55;100.00;95717.41;7401356;19;20404;-74
2023/05/15 05:46:36;;;;;;;8.10;6.87;;;;;;;10.74;100.00;95716.72;7399593;19;20364;-74
2023/05/15 05:49:03;;;;;;;7.77;7.10;;;;;;;10.91;100.00;95740.94;7402316;19;20352;-74
2023/05/15 05:51:31;;;;;;;7.90;7.17;;;;;;;10.77;100.00;95705.47;7396575;19;20760;-74
2023/05/15 05:53:57;;;;;;;7.33;6.67;;;;;;;11.23;100.00;95717.13;7400653;19;20361;-74
2023/05/15 05:56:25;;;;;;;7.10;6.50;;;;;;;11.61;100.00;95731.50;7397212;19;20387;-74
2023/05/15 05:58:52;;;;;;;7.50;6.87;;;;;;;11.76;100.00;95717.47;7400637;19;20397;-74
2023/05/15 06:01:19;;;;;;;6.93;6.33;;;;;;;12.21;100.00;95735.38;7396314;19;20432;-74
2023/05/15 06:03:47;;;;;;;7.40;6.70;;;;;;;12.83;100.00;95733.44;7398536;19;20392;-74
2023/05/15 06:06:14;;;;;;;5.70;5.20;;;;;;;12.80;100.00;95731.47;7398710;19;20479;-74
2023/05/15 06:08:41;;;;;;;6.43;5.37;;;;;;;13.18;100.00;95743.03;7401717;19;20725;-74
2023/05/15 06:11:07;;;;;;;5.37;4.87;;;;;;;12.75;100.00;95720.41;7398258;19;20820;-74
2023/05/15 06:13:34;;;;;;;5.23;4.83;;;;;;;12.81;100.00;95714.41;7400103;19;20830;-74
2023/05/15 06:16:01;;;;;;;7.00;5.53;;;;;;;12.50;100.00;95734.00;7397563;19;20932;-74
2023/05/15 06:18:28;;;;;;;6.77;6.10;;;;;;;12.53;100.00;95704.13;7399935;19;20789;-74
2023/05/15 06:20:57;;;;;;;7.03;6.17;;;;;;;12.68;100.00;95743.00;7397977;19;20432;-74
2023/05/15 06:23:27;;;;;;;6.60;5.93;;;;;;;12.91;100.00;95723.69;7401212;19;20357;-74
2023/05/15 06:25:54;;;;;;;6.80;5.93;;;;;;;13.09;100.00;95718.63;7398515;19;20761;-74
2023/05/15 06:28:21;;;;;;;5.43;4.90;;;;;;;13.30;100.00;95716.31;7402701;19;20353;-74
2023/05/15 06:30:48;;;;;;;4.70;4.40;;;;;;;13.42;100.00;95750.63;7396702;19;20421;-74
2023/05/15 06:33:15;;;;;;;5.17;4.77;;;;;;;13.38;100.00;95725.94;7399768;19;20372;-74
2023/05/15 06:35:42;;;;;;;5.17;4.77;;;;;;;13.35;100.00;95747.09;7402856;19;20531;-74
2023/05/15 06:38:09;;;;;;;4.70;4.30;;;;;;;13.10;100.00;95699.72;7401704;19;20375;-74
2023/05/15 06:40:36;;;;;;;4.97;4.57;;;;;;;13.37;100.00;95731.59;7397553;19;20420;-74
2023/05/15 06:43:03;;;;;;;5.33;4.83;;;;;;;13.36;100.00;95730.84;7399512;19;20373;-74
2023/05/15 06:45:30;;;;;;;5.27;4.77;;;;;;;13.55;100.00;95728.06;7398835;19;20473;-74
2023/05/15 06:47:57;;;;;;;5.80;5.30;;;;;;;13.19;100.00;95713.50;7399417;19;20742;-74
2023/05/15 06:50:27;;;;;;;5.97;5.20;;;;;;;13.37;100.00;95700.50;7396603;19;20985;-74
2023/05/15 06:52:54;;;;;;;5.00;4.50;;;;;;;13.59;100.00;95742.13;7397188;19;20435;-74
2023/05/15 06:55:21;;;;;;;4.50;4.10;;;;;;;14.00;100.00;95717.56;7396985;19;20854;-74
2023/05/15 06:57:48;;;;;;;5.93;4.87;;;;;;;13.82;100.00;95734.09;7397801;19;20365;-74
2023/05/15 07:00:15;;;;;;;4.50;4.20;;;;;;;13.86;100.00;95724.25;7396550;19;20968;-74
2023/05/15 07:02:42;;;;;;;5.10;4.70;;;;;;;13.93;100.00;95725.47;7396397;19;20357;-74
2023/05/15 07:05:10;;;;;;;5.53;5.07;;;;;;;13.87;100.00;95738.31;7399277;19;20353;-74
2023/05/15 07:07:37;;;;;;;5.03;4.63;;;;;;;14.20;100.00;95748.97;7397869;19;20405;-74
2023/05/15 07:10:04;;;;;;;6.17;5.10;;;;;;;14.34;100.00;95742.25;7396765;19;20796;-74
2023/05/15 07:12:33;;;;;;;5.60;5.20;;;;;;;14.49;100.00;95718.13;7400224;19;20353;-74
2023/05/15 07:14:59;;;;;;;5.63;5.20;;;;;;;14.18;100.00;95721.22;7397731;19;20353;-74
2023/05/15 07:17:26;;;;;;;8.30;5.30;;;;;;;13.57;100.00;95717.06;7394440;19;20722;-74
2023/05/15 07:19:53;;;;;;;5.80;5.20;;;;;;;13.67;100.00;95719.09;7396804;19;20468;-74
2023/05/15 07:22:20;;;;;;;5.43;4.93;;;;;;;13.71;100.00;95717.25;7396190;19;20376;-74
2023/05/15 07:24:47;;;;;;;5.50;5.03;;;;;;;13.83;100.00;95722.31;7399100;19;20349;-74
2023/05/15 07:27:14;;;;;;;5.70;5.13;;;;;;;14.15;100.00;95712.03;7395765;19;20376;-74
2023/05/15 07:29:41;;;;;;;5.30;4.90;;;;;;;14.45;100.00;95735.19;7397344;19;20431;-74
2023/05/15 07:32:08;;;;;;;5.60;5.10;;;;;;;14.77;100.00;95724.84;7397460;19;20442;-74
2023/05/15 07:34:35;;;;;;;5.67;5.17;;;;;;;14.50;100.00;95724.22;7397343;19;20365;-74
2023/05/15 07:37:01;;;;;;;5.70;5.20;;;;;;;14.82;100.00;95734.38;7394468;19;20455;-74
2023/05/15 07:39:28;;;;;;;6.50;5.83;;;;;;;14.96;100.00;95732.59;7396974;19;20409;-74
2023/05/15 07:41:55;;;;;;;8.40;5.93;;;;;;;14.82;100.00;95707.75;7396173;19;20399;-74
2023/05/15 07:44:22;;;;;;;6.63;5.83;;;;;;;14.76;100.00;95726.72;7398653;19;20373;-74
2023/05/15 07:46:49;;;;;;;5.37;4.97;;;;;;;14.84;100.00;95730.22;7397108;19;20349;-74
2023/05/15 07:49:16;;;;;;;6.23;5.63;;;;;;;14.57;100.00;95726.94;7395572;19;20405;-74
2023/05/15 07:51:43;;;;;;;5.10;4.70;;;;;;;15.60;100.00;95740.25;7395379;19;20380;-74
2023/05/15 07:54:10;;;;;;;5.33;4.83;;;;;;;15.77;100.00;95714.84;7396867;19;20392;-74
2023/05/15 07:56:37;;;;;;;6.27;5.77;;;;;;;16.27;100.00;95745.13;7394379;19;20368;-74
2023/05/15 07:59:04;;;;;;;6.77;6.23;;;;;;;16.80;100.00;95731.91;7397534;19;20397;-74
2023/05/15 08:01:31;;;;;;;6.10;5.60;;;;;;;16.65;100.00;95737.56;7393728;19;20432;-74
2023/05/15 08:03:59;;;;;;;5.07;4.57;;;;;;;15.91;100.00;95697.00;7398731;19;20352;-74
2023/05/15 08:06:26;;;;;;;5.50;5.00;;;;;;;16.74;100.00;95725.41;7395773;19;20381;-74
2023/05/15 08:08:53;;;;;;;5.70;5.30;;;;;;;16.65;100.00;95727.66;7398144;19;20368;-74
2023/05/15 08:11:20;;;;;;;6.80;5.23;;;;;;;16.24;100.00;95713.88;7395026;19;20405;-74
2023/05/15 08:13:47;;;;;;;6.73;4.67;;;;;;;15.76;100.00;95706.09;7396702;19;20337;-74
2023/05/15 08:16:14;;;;;;;4.77;4.37;;;;;;;16.07;100.00;95727.91;7395043;19;20373;-74
2023/05/15 08:18:41;;;;;;;5.80;5.30;;;;;;;16.24;100.00;95703.19;7397067;19;20428;-74
2023/05/15 08:21:08;;;;;;;5.07;4.67;;;;;;;16.19;100.00;95722.25;7393549;19;20416;-74
2023/05/15 08:23:35;;;;;;;5.40;5.00;;;;;;;16.66;100.00;95731.09;7398022;19;20363;-74
2023/05/15 08:26:02;;;;;;;5.23;4.83;;;;;;;16.82;100.00;95715.50;7394881;19;20895;-74
2023/05/15 08:28:29;;;;;;;5.00;4.60;;;;;;;16.29;100.00;95713.47;7396611;19;20376;-74
2023/05/15 08:30:56;;;;;;;5.33;4.67;;;;;;;16.72;100.00;95717.03;7394824;19;20424;-74
2023/05/15 08:33:23;;;;;;;4.53;4.13;;;;;;;16.37;100.00;95715.03;7394829;19;20364;-74
2023/05/15 08:35:50;;;;;;;6.70;6.10;;;;;;;16.98;100.00;95721.22;7395114;19;20417;-74
2023/05/15 08:38:17;;;;;;;4.60;4.30;;;;;;;17.19;100.00;95720.44;7391082;19;20400;-74
2023/05/15 08:40:46;;;;;;;4.50;4.10;;;;;;;16.26;100.00;95696.34;7394844;19;20388;-74
2023/05/15 08:43:16;;;;;;;4.33;3.90;;;;;;;16.43;100.00;95721.53;7393517;19;20406;-74
2023/05/15 08:45:43;;;;;;;5.67;5.17;;;;;;;16.25;100.00;95723.41;7394745;19;20394;-74
2023/05/15 08:48:15;;;;;;;7.27;5.30;;;;;;;15.70;100.00;95702.25;7393104;19;20910;-74
2023/05/15 08:50:43;;;;;;;6.53;5.50;;;;;;;16.23;100.00;95715.00;7393702;19;20393;-74
2023/05/15 08:53:12;;;;;;;4.80;4.40;;;;;;;16.50;100.00;95715.44;7393659;19;20429;-74
2023/05/15 08:55:39;;;;;;;5.60;5.10;;;;;;;16.50;100.00;95713.53;7395191;19;20410;-74
2023/05/15 08:58:06;;;;;;;4.50;4.17;;;;;;;15.86;100.00;95707.25;7391650;19;20511;-74
2023/05/15 09:00:33;;;;;;;5.47;4.97;;;;;;;15.60;100.00;95717.03;7395349;19;20448;-74
2023/05/15 09:03:00;;;;;;;4.70;4.30;;;;;;;15.63;100.00;95691.56;7402393;19;20379;-74
2023/05/15 09:05:29;;;;;;;4.83;4.50;;;;;;;16.95;100.00;95716.63;7402234;19;20403;-74
2023/05/15 09:07:58;;;;;;;5.20;4.80;;;;;;;16.60;100.00;95712.03;7400812;19;20384;-74
2023/05/15 09:10:25;;;;;;;5.00;4.57;;;;;;;17.24;100.00;95687.25;7402287;19;20381;-74
2023/05/15 09:12:53;;;;;;;4.67;4.33;;;;;;;18.04;100.00;95706.13;7402338;19;20348;-74
2023/05/15 09:15:23;;;;;;;5.00;4.60;;;;;;;17.79;100.00;95713.47;7403071;19;20395;-74
2023/05/15 09:17:51;;;;;;;4.10;3.80;;;;;;;16.64;100.00;95704.78;7398783;19;20766;-74
2023/05/15 09:20:36;;;;;;;4.20;3.87;;;;;;;16.97;100.00;95721.63;7401217;19;20503;-74
2023/05/15 09:23:05;;;;;;;3.57;3.37;;;;;;;17.40;100.00;95715.06;7402053;19;20348;-74
2023/05/15 09:25:40;;;;;;;5.40;3.60;;;;;;;16.83;100.00;95706.38;7401802;19;20478;-74
2023/05/15 09:28:10;;;;;;;6.37;3.83;;;;;;;17.29;100.00;95711.66;7417565;19;20356;-74
2023/05/15 09:30:37;;;;;;;4.37;3.97;;;;;;;16.96;99.89;95712.84;7431781;19;20450;-74
2023/05/15 09:33:04;;;;;;;4.80;4.30;;;;;;;16.53;100.00;95688.75;7434253;19;20456;-74
2023/05/15 09:35:33;;;;;;;3.77;3.53;;;;;;;16.39;98.21;95710.09;7420047;19;20432;-74
2023/05/15 09:38:02;;;;;;;3.47;3.17;;;;;;;16.62;96.90;95692.97;7401308;19;20405;-74
2023/05/15 09:40:30;;;;;;;4.80;3.00;;;;;;;16.16;93.20;95706.97;7399253;19;20433;-74
2023/05/15 09:42:58;;;;;;;3.70;3.40;;;;;;;16.20;95.68;95711.19;7402606;19;20348;-74
2023/05/15 09:45:28;;;;;;;2.83;2.63;;;;;;;16.36;92.40;95691.41;7402386;19;20889;-74
2023/05/15 09:47:58;;;;;;;3.33;3.07;;;;;;;16.81;93.97;95709.38;7402070;19;20730;-74
2023/05/15 09:50:33;;;;;;;5.07;3.97;;;;;;;17.56;91.52;95689.84;7398660;19;20404;-74
2023/05/15 09:53:00;;;;;;;3.30;2.97;;;;;;;16.95;87.72;95689.94;7399086;19;20388;-74
2023/05/15 09:55:30;;;;;;;3.13;2.83;;;;;;;17.42;86.45;95698.66;7400499;19;20391;-74
2023/05/15 09:58:14;;;;;;;3.20;3.00;;;;;;;17.44;88.56;95688.34;7397589;19;20405;-74
2023/05/15 10:00:42;;;;;;;3.27;3.03;;;;;;;17.54;89.62;95684.88;7399416;19;20440;-74
2023/05/15 10:03:17;;;;;;;3.40;3.10;;;;;;;18.06;92.92;95700.38;7399558;19;20364;-74
2023/05/15 10:05:45;;;;;;;4.47;4.17;;;;;;;17.72;94.65;95684.84;7401082;19;20379;-74
2023/05/15 10:08:13;;;;;;;4.60;4.17;;;;;;;17.38;99.65;95673.84;7399811;19;20425;-74
2023/05/15 10:10:41;;;;;;;3.43;3.23;;;;;;;16.26;99.35;95674.22;7396720;19;20936;-74
2023/05/15 10:13:09;;;;;;;4.37;3.90;;;;;;;16.99;100.00;95669.34;7399246;19;20416;-74
2023/05/15 10:15:37;;;;;;;4.30;4.00;;;;;;;17.49;99.12;95666.53;7398553;19;20432;-74
2023/05/15 10:18:06;;;;;;;4.20;3.90;;;;;;;17.00;98.00;95670.88;7398362;19;20394;-74
2023/05/15 10:20:34;;;;;;;4.40;4.00;;;;;;;17.16;97.44;95691.06;7398474;19;20755;-74
2023/05/15 10:23:05;;;;;;;3.23;2.93;;;;;;;16.71;92.60;95696.06;7399424;19;20376;-73
2023/05/15 10:25:34;;;;;;;3.00;2.80;;;;;;;17.36;90.43;95684.94;7399738;19;20424;-73
2023/05/15 10:28:02;;;;;;;4.30;4.00;;;;;;;18.06;88.09;95681.66;7399990;19;20376;-73
2023/05/15 10:30:31;;;;;;;3.97;3.67;;;;;;;17.54;91.95;95684.88;7396322;19;20396;-73
2023/05/15 10:32:59;;;;;;;3.70;3.50;;;;;;;16.67;94.62;95663.22;7400003;19;20374;-73
2023/05/15 10:35:27;;;;;;;3.00;2.80;;;;;;;16.45;97.63;95660.56;7398266;19;20412;-72
2023/05/15 10:37:55;;;;;;;3.53;3.23;;;;;;;16.36;97.88;95654.81;7397746;19;20495;-73
2023/05/15 10:40:23;;;;;;;3.93;3.73;;;;;;;16.39;97.24;95669.28;7397133;19;20416;-73
2023/05/15 10:42:50;;;;;;;3.90;3.60;;;;;;;16.38;97.04;95675.78;7402598;19;20387;-73
2023/05/15 10:45:18;;;;;;;3.70;3.40;;;;;;;17.58;91.46;95666.91;7399952;19;20349;-73
2023/05/15 10:47:45;;;;;;;4.70;4.40;;;;;;;17.70;91.67;95669.19;7399365;19;20363;-72
2023/05/15 10:50:13;;;;;;;3.50;3.30;;;;;;;17.91;86.38;95648.84;7398636;19;20464;-73
2023/05/15 10:52:41;;;;;;;3.10;2.90;;;;;;;18.31;86.53;95648.25;7399712;19;20892;-73
2023/05/15 10:55:12;;;;;;;3.40;3.20;;;;;;;19.16;83.74;95670.16;7398896;19;20376;-73
2023/05/15 10:57:39;;;;;;;2.90;2.70;;;;;;;19.27;82.96;95662.75;7400399;19;20372;-73
2023/05/15 11:00:33;;;;;;;3.00;2.80;;;;;;;17.61;84.35;95655.44;7398588;19;20473;-73
2023/05/15 11:03:00;;;;;;;3.60;3.30;;;;;;;17.50;87.14;95665.41;7396780;19;20397;-73
2023/05/15 11:05:29;;;;;;;3.57;3.33;;;;;;;17.68;85.71;95650.09;7398822;19;20345;-72
2023/05/15 11:08:16;;;;;;;3.53;3.10;;;;;;;18.57;80.12;95672.91;7397166;19;20384;-73
2023/05/15 11:10:43;;;;;;;2.97;2.67;;;;;;;18.45;81.08;95665.34;7396124;19;20415;-73
2023/05/15 11:13:10;;;;;;;3.00;2.80;;;;;;;17.35;83.40;95645.22;7398754;19;20881;-73
2023/05/15 11:15:42;;;;;;;2.93;2.73;;;;;;;17.00;85.01;95657.50;7395499;19;20933;-73
2023/05/15 11:18:10;;;;;;;3.73;3.30;;;;;;;17.17;83.60;95663.19;7397607;19;20389;-72
2023/05/15 11:20:53;;;;;;;3.43;3.13;;;;;;;17.13;85.37;95661.31;7395159;19;20753;-72
2023/05/15 11:23:21;;;;;;;3.43;3.13;;;;;;;17.14;92.06;95654.81;7397687;19;20373;-73
2023/05/15 11:25:53;;;;;;;4.60;3.30;;;;;;;18.55;89.77;95670.59;7397656;19;20735;-73
2023/05/15 11:28:22;;;;;;;4.47;4.07;;;;;;;18.63;90.18;95671.34;7399423;19;20762;-73
2023/05/15 11:30:58;;;;;;;4.20;3.83;;;;;;;16.61;92.21;95672.75;7395329;19;20445;-73
2023/05/15 11:33:28;;;;;;;3.67;3.47;;;;;;;15.74;96.06;95655.03;7398506;19;20392;-72
2023/05/15 11:35:59;;;;;;;3.40;3.17;;;;;;;15.87;100.00;95637.56;7396953;19;20387;-72
2023/05/15 11:38:26;;;;;;;4.00;3.50;;;;;;;15.05;98.52;95636.44;7394643;19;20405;-72